Time;durP1;ratioP1;P1;durP2;ratioP2;P2;SDS_P1;SDS_P2;PMS_P1;PMS_P2;Temp;Humidity;BMP_temperature;BMP_pressure;BME280_temperature;BME280_humidity;BME280_pressure;Samples;Min_cycle;Max_cycle;Signal;HPM_P1;HPM_P2
2022/11/16 10:31:55;;;;;;;34.92;31.61;;;;;;;5.17;82.06;100231.92;504522;105;946936;-76
2022/11/16 10:33:08;;;;;;;37.22;33.39;;;;;;;5.14;81.79;100232.27;487485;107;922508;-76
2022/11/16 10:34:16;;;;;;;36.84;32.71;;;;;;;5.21;81.74;100235.91;495093;107;922569;-82
2022/11/16 10:35:44;;;;;;;35.73;32.19;;;;;;;5.27;81.51;100238.70;495050;107;922459;-81
2022/11/16 10:36:47;;;;;;;36.41;32.07;;;;;;;5.32;81.46;100233.56;495135;107;922548;-76
2022/11/16 10:37:51;;;;;;;40.51;33.34;;;;;;;5.39;81.32;100220.97;495355;107;922981;-75
2022/11/16 10:38:56;;;;;;;37.74;33.09;;;;;;;5.43;81.46;100230.37;495223;107;922456;-75
2022/11/16 10:40:03;;;;;;;41.45;33.32;;;;;;;5.53;81.27;100224.65;495188;107;922654;-75
2022/11/16 10:41:18;;;;;;;36.49;31.45;;;;;;;5.53;81.27;100224.65;491662;107;922453;-75
2022/11/16 10:42:34;;;;;;;37.99;32.31;;;;;;;5.59;81.26;100225.75;495228;107;922912;-76
2022/11/16 10:43:37;;;;;;;37.15;33.06;;;;;;;5.64;81.10;100223.31;495391;107;922792;-81
2022/11/16 10:44:59;;;;;;;39.29;32.66;;;;;;;5.68;81.00;100217.32;496141;107;922708;-82
2022/11/16 10:46:06;;;;;;;35.66;32.10;;;;;;;5.72;80.97;100215.09;495098;107;922865;-84
2022/11/16 10:47:15;;;;;;;38.47;33.00;;;;;;;5.77;80.93;100215.34;494085;107;922886;-84
2022/11/16 10:48:41;;;;;;;38.51;33.67;;;;;;;5.80;80.79;100220.36;495637;107;922296;-81
2022/11/16 10:49:53;;;;;;;35.77;32.24;;;;;;;5.86;80.78;100216.87;495395;107;923211;-82
2022/11/16 10:50:57;;;;;;;36.34;32.58;;;;;;;5.86;80.78;100216.87;496062;107;922219;-83
2022/11/16 10:52:01;;;;;;;34.91;31.59;;;;;;;5.89;80.54;100216.55;496379;107;922058;-82
2022/11/16 10:53:04;;;;;;;35.89;31.76;;;;;;;5.91;80.53;100211.76;495313;107;922471;-74
2022/11/16 10:54:14;;;;;;;33.91;30.71;;;;;;;5.94;80.56;100213.25;495419;107;922480;-75
2022/11/16 10:55:20;;;;;;;33.98;30.69;;;;;;;5.96;80.42;100201.19;494635;107;922637;-75
2022/11/16 10:56:26;;;;;;;36.32;32.52;;;;;;;5.99;80.44;100202.68;495036;107;930586;-75
2022/11/16 10:57:49;;;;;;;36.26;32.52;;;;;;;6.02;80.40;100204.98;495232;107;922501;-75
2022/11/16 10:59:02;;;;;;;37.68;33.49;;;;;;;6.04;80.30;100205.64;490920;107;922659;-74
2022/11/16 11:00:08;;;;;;;36.23;32.42;;;;;;;6.07;80.23;100206.08;485836;109;922553;-75
2022/11/16 11:01:13;;;;;;;37.67;33.08;;;;;;;6.09;80.03;100195.91;485524;109;922555;-76
2022/11/16 11:02:26;;;;;;;35.71;32.18;;;;;;;6.11;80.06;100204.67;485987;109;922844;-74
2022/11/16 11:03:30;;;;;;;36.34;32.65;;;;;;;6.15;80.10;100195.12;485794;109;930357;-75
2022/11/16 11:04:34;;;;;;;36.22;32.43;;;;;;;6.15;80.10;100195.12;485857;109;923412;-76
2022/11/16 11:05:51;;;;;;;32.72;29.52;;;;;;;6.18;79.91;100192.02;489993;107;922849;-76
2022/11/16 11:06:57;;;;;;;33.96;30.82;;;;;;;6.20;79.87;100189.95;495148;107;922432;-76
2022/11/16 11:08:06;;;;;;;35.08;31.59;;;;;;;6.22;79.91;100196.02;495194;107;922963;-75
2022/11/16 11:09:25;;;;;;;34.63;31.09;;;;;;;6.25;79.85;100189.36;495221;107;922457;-76
2022/11/16 11:10:38;;;;;;;34.06;30.89;;;;;;;6.27;79.75;100188.15;495233;107;922508;-76
2022/11/16 11:13:15;;;;;;;35.88;32.16;;;;;;;6.30;79.76;100186.91;495218;107;922477;-77
2022/11/16 11:15:34;;;;;;;35.15;31.47;;;;;;;6.46;79.79;100186.59;488080;107;940538;-82
2022/11/16 11:16:40;;;;;;;35.23;31.76;;;;;;;6.37;79.67;100178.84;468789;111;922571;-82
2022/11/16 11:17:49;;;;;;;35.96;32.47;;;;;;;6.40;79.67;100181.97;466800;113;923046;-82
2022/11/16 11:18:50;;;;;;;38.48;34.11;;;;;;;6.42;79.56;100185.33;466241;113;922894;-83
2022/11/16 11:19:59;;;;;;;40.61;35.59;;;;;;;6.44;79.60;100180.56;466921;113;923006;-85
2022/11/16 11:21:21;;;;;;;46.01;37.31;;;;;;;6.46;79.54;100188.47;466785;113;922865;-83
2022/11/16 11:22:25;;;;;;;47.26;37.62;;;;;;;6.47;79.49;100184.73;466808;113;922466;-81
2022/11/16 11:23:28;;;;;;;40.16;35.69;;;;;;;6.47;79.38;100176.61;466896;113;922560;-83
2022/11/16 11:24:31;;;;;;;40.82;35.39;;;;;;;6.48;79.42;100181.00;467054;113;922463;-85
2022/11/16 11:25:44;;;;;;;39.68;33.88;;;;;;;6.49;79.37;100196.22;469222;111;922519;-85
2022/11/16 11:26:54;;;;;;;36.96;32.92;;;;;;;6.49;79.43;100180.80;465405;113;922523;-86
2022/11/16 11:28:27;;;;;;;37.61;33.79;;;;;;;6.51;79.45;100186.84;466836;113;922510;-84
2022/11/16 11:29:33;;;;;;;36.21;32.53;;;;;;;6.52;79.37;100180.39;466859;113;922554;-84
2022/11/16 11:30:36;;;;;;;35.42;32.13;;;;;;;6.53;79.38;100183.94;462870;113;922956;-84
2022/11/16 11:31:42;;;;;;;38.15;34.07;;;;;;;6.54;79.43;100182.91;453707;117;922626;-81
2022/11/16 11:32:46;;;;;;;40.36;34.04;;;;;;;6.54;79.32;100182.91;455934;115;922864;-83
2022/11/16 11:33:52;;;;;;;37.63;33.85;;;;;;;6.56;79.38;100178.14;450141;118;922599;-83
2022/11/16 11:34:59;;;;;;;40.51;34.99;;;;;;;6.56;79.32;100178.14;450010;118;922883;-82
2022/11/16 11:36:08;;;;;;;40.94;35.33;;;;;;;6.57;79.23;100186.05;450007;116;922978;-82
2022/11/16 11:37:17;;;;;;;42.44;35.57;;;;;;;6.57;79.15;100188.77;449743;118;922551;-83
2022/11/16 11:38:21;;;;;;;40.62;35.81;;;;;;;6.57;79.16;100183.34;450144;118;922721;-83
2022/11/16 11:39:35;;;;;;;38.31;33.41;;;;;;;6.57;79.02;100179.80;450107;118;923084;-82
2022/11/16 11:40:40;;;;;;;38.97;33.76;;;;;;;6.56;79.06;100181.66;449935;118;930096;-85
2022/11/16 11:41:45;;;;;;;39.92;34.88;;;;;;;6.55;79.02;100176.47;450021;116;922504;-81
2022/11/16 11:42:58;;;;;;;36.26;32.47;;;;;;;6.56;79.09;100178.95;450031;118;922887;-83
2022/11/16 11:44:04;;;;;;;37.17;33.36;;;;;;;6.57;79.04;100177.09;450048;118;922649;-86
2022/11/16 11:45:10;;;;;;;38.73;34.70;;;;;;;6.58;79.14;100176.06;450049;118;922464;-83
2022/11/16 11:46:19;;;;;;;37.03;33.17;;;;;;;6.58;79.05;100173.34;449640;116;922711;-81
2022/11/16 11:47:44;;;;;;;37.46;33.69;;;;;;;6.58;79.01;100167.93;449466;118;923094;-83
2022/11/16 11:48:52;;;;;;;36.29;32.43;;;;;;;6.58;79.00;100179.61;455385;116;922355;-84
2022/11/16 11:50:08;;;;;;;33.99;30.79;;;;;;;6.57;78.99;100172.51;451680;117;922683;-85
2022/11/16 11:51:32;;;;;;;35.53;32.05;;;;;;;6.56;78.90;100178.14;452026;115;922613;-85
2022/11/16 11:52:42;;;;;;;32.50;29.64;;;;;;;6.55;78.86;100165.63;451992;117;922551;-83
2022/11/16 11:53:48;;;;;;;34.34;31.04;;;;;;;6.53;78.87;100178.53;446526;118;922925;-82
2022/11/16 11:54:53;;;;;;;33.12;29.94;;;;;;;6.52;78.99;100171.43;452522;117;922327;-82
2022/11/16 11:55:59;;;;;;;33.22;30.19;;;;;;;6.53;78.96;100181.23;452889;115;922380;-80
2022/11/16 11:57:04;;;;;;;33.96;30.37;;;;;;;6.52;79.02;100188.52;453031;117;922379;-81
2022/11/16 11:58:14;;;;;;;34.19;30.66;;;;;;;6.52;78.92;100169.56;452805;117;922627;-81
2022/11/16 11:59:20;;;;;;;33.22;30.16;;;;;;;6.51;78.98;100159.76;452983;117;922505;-82
2022/11/16 12:00:24;;;;;;;32.75;29.76;;;;;;;6.53;78.96;100157.70;452609;117;922117;-81
2022/11/16 12:01:40;;;;;;;34.41;30.77;;;;;;;6.54;78.94;100166.66;452058;115;922547;-83
2022/11/16 12:03:06;;;;;;;34.69;31.14;;;;;;;6.55;78.92;100171.89;449605;118;922731;-84
2022/11/16 12:04:25;;;;;;;30.73;28.33;;;;;;;6.55;78.92;100166.47;452039;117;922565;-84
2022/11/16 12:05:51;;;;;;;34.62;31.34;;;;;;;6.55;78.86;100162.92;452391;117;922597;-82
2022/11/16 12:07:07;;;;;;;34.22;31.19;;;;;;;6.54;78.85;100158.53;453519;117;922616;-83
2022/11/16 12:08:29;;;;;;;34.58;31.31;;;;;;;6.55;78.94;100168.34;451173;117;923112;-83
2022/11/16 12:09:47;;;;;;;35.98;32.49;;;;;;;6.54;78.95;100162.09;448726;118;922858;-85
2022/11/16 12:10:57;;;;;;;36.22;32.59;;;;;;;6.53;79.03;100156.86;461888;115;922944;-83
2022/11/16 12:12:10;;;;;;;35.53;32.17;;;;;;;6.53;79.03;100156.86;448330;118;922452;-83
2022/11/16 12:13:43;;;;;;;34.21;31.25;;;;;;;6.53;78.98;100163.12;454762;116;922630;-82
2022/11/16 12:15:01;;;;;;;36.13;32.46;;;;;;;6.53;79.01;100164.98;455403;116;922555;-82
2022/11/16 12:16:16;;;;;;;35.94;32.68;;;;;;;6.53;78.95;100168.53;439697;120;922750;-83
2022/11/16 12:17:32;;;;;;;34.33;31.23;;;;;;;6.52;79.00;100160.59;446302;118;922971;-84
2022/11/16 12:19:01;;;;;;;34.73;31.48;;;;;;;6.52;78.95;100161.44;452579;117;922863;-81
2022/11/16 12:20:39;;;;;;;36.24;32.54;;;;;;;6.52;79.00;100168.72;452702;117;923212;-83
2022/11/16 12:22:01;;;;;;;33.37;30.28;;;;;;;6.51;79.06;100154.34;452714;115;922492;-82
2022/11/16 12:23:44;;;;;;;35.91;32.41;;;;;;;6.50;79.10;100162.69;452720;117;922511;-82
2022/11/16 12:24:55;;;;;;;32.92;29.91;;;;;;;6.48;79.14;100157.46;452706;117;922529;-84
2022/11/16 12:26:32;;;;;;;32.22;29.46;;;;;;;6.48;79.03;100156.63;452736;117;922596;-84
2022/11/16 12:28:02;;;;;;;29.48;27.02;;;;;;;6.48;79.03;100156.63;452703;117;922876;-85
2022/11/16 12:29:29;;;;;;;31.72;28.62;;;;;;;6.45;79.19;100148.91;452675;117;922971;-82
2022/11/16 12:30:35;;;;;;;32.72;29.74;;;;;;;6.44;79.21;100161.61;452153;117;922627;-82
2022/11/16 12:31:44;;;;;;;31.75;28.96;;;;;;;6.45;79.21;100154.33;449901;117;922503;-85
2022/11/16 12:33:03;;;;;;;31.92;29.06;;;;;;;6.45;79.12;100154.33;456219;114;922454;-87
2022/11/16 12:34:13;;;;;;;31.35;28.64;;;;;;;6.45;79.15;100151.62;463071;113;923007;-81
2022/11/16 12:35:34;;;;;;;31.39;28.38;;;;;;;6.46;79.16;100154.10;463147;113;923023;-84
2022/11/16 12:36:53;;;;;;;31.12;28.43;;;;;;;6.47;79.07;100154.94;454671;115;922631;-83
2022/11/16 12:38:11;;;;;;;30.66;27.89;;;;;;;6.47;79.07;100153.08;456149;114;923445;-84
2022/11/16 12:39:24;;;;;;;30.98;28.26;;;;;;;6.47;79.06;100149.52;462694;114;922950;-83
2022/11/16 12:40:49;;;;;;;30.19;27.72;;;;;;;6.47;79.06;100144.11;462179;114;923077;-82
2022/11/16 12:42:15;;;;;;;30.86;28.19;;;;;;;6.47;79.08;100144.11;462667;114;922853;-85
2022/11/16 12:43:37;;;;;;;28.33;26.19;;;;;;;6.47;79.03;100141.41;462988;113;922456;-80
2022/11/16 12:45:05;;;;;;;27.56;25.17;;;;;;;6.47;79.09;100147.66;460932;113;922998;-84
2022/11/16 12:46:40;;;;;;;28.16;25.74;;;;;;;6.47;79.04;100141.41;454567;114;922517;-86
2022/11/16 12:47:53;;;;;;;26.74;24.57;;;;;;;6.46;78.99;100145.14;453883;116;922827;-84
2022/11/16 12:48:59;;;;;;;27.07;24.78;;;;;;;6.45;79.13;100135.37;453614;116;922736;-81
2022/11/16 12:50:31;;;;;;;27.92;25.64;;;;;;;6.44;79.09;100141.81;454169;116;922686;-81
2022/11/16 12:51:46;;;;;;;27.86;25.80;;;;;;;6.44;79.14;100142.66;454603;114;922906;-82
2022/11/16 12:53:14;;;;;;;27.32;24.92;;;;;;;6.45;79.08;100138.88;454606;116;922546;-80
2022/11/16 12:54:33;;;;;;;26.69;24.65;;;;;;;6.45;79.12;100133.47;454672;116;923018;-84
2022/11/16 12:55:51;;;;;;;27.84;25.71;;;;;;;6.45;79.18;100138.08;454626;116;922610;-85
2022/11/16 12:57:16;;;;;;;26.24;24.06;;;;;;;6.45;79.20;100138.08;454646;116;922656;-85
2022/11/16 12:58:25;;;;;;;27.27;25.03;;;;;;;6.45;79.13;100138.88;454566;116;922548;-82
2022/11/16 12:59:41;;;;;;;26.23;24.11;;;;;;;6.45;79.22;100136.17;454571;116;922686;-84
2022/11/16 13:00:58;;;;;;;25.71;23.03;;;;;;;6.46;79.13;100139.72;450851;116;922640;-80
2022/11/16 13:02:10;;;;;;;25.74;23.53;;;;;;;6.45;79.22;100130.76;428968;123;922866;-82
2022/11/16 13:03:20;;;;;;;26.13;23.98;;;;;;;6.46;79.24;100135.14;454167;116;922872;-83
2022/11/16 13:04:39;;;;;;;27.33;24.65;;;;;;;6.56;79.11;100130.20;482307;110;947201;-85
2022/11/16 13:05:57;;;;;;;26.55;24.35;;;;;;;6.47;79.13;100125.16;469669;112;922591;-83
2022/11/16 13:07:10;;;;;;;25.11;23.17;;;;;;;6.47;79.20;100128.70;465338;114;922484;-83
2022/11/16 13:08:34;;;;;;;24.86;22.93;;;;;;;6.48;79.12;100124.96;464842;113;923035;-81
2022/11/16 13:09:43;;;;;;;25.48;23.50;;;;;;;6.48;79.08;100130.38;465328;114;922487;-85
2022/11/16 13:10:50;;;;;;;26.06;23.92;;;;;;;6.48;79.09;100118.70;465354;114;922993;-82
2022/11/16 13:11:59;;;;;;;27.08;24.54;;;;;;;6.48;79.07;100124.13;465363;114;922529;-86
2022/11/16 13:13:05;;;;;;;28.64;26.34;;;;;;;6.48;79.09;100127.67;465382;114;922726;-83
2022/11/16 13:14:23;;;;;;;26.68;24.42;;;;;;;6.49;79.07;100128.51;462202;114;922494;-83
2022/11/16 13:15:30;;;;;;;26.83;24.51;;;;;;;6.50;79.12;100127.48;465425;114;922524;-81
2022/11/16 13:16:33;;;;;;;29.47;26.91;;;;;;;6.50;79.01;100120.20;464134;113;922436;-83
2022/11/16 13:17:38;;;;;;;29.80;27.00;;;;;;;6.50;79.03;100130.19;456578;116;922886;-85
2022/11/16 13:18:43;;;;;;;29.90;27.23;;;;;;;6.50;79.01;100125.61;465398;114;922463;-84
2022/11/16 13:19:52;;;;;;;30.25;27.49;;;;;;;6.50;78.94;100120.20;465411;114;923542;-82
2022/11/16 13:21:02;;;;;;;29.99;27.14;;;;;;;6.50;78.88;100117.48;452546;116;922543;-82
2022/11/16 13:22:17;;;;;;;30.36;27.45;;;;;;;6.52;78.90;100119.97;456340;116;922563;-82
2022/11/16 13:23:41;;;;;;;29.61;26.77;;;;;;;6.51;78.76;100116.42;456058;116;922576;-83
2022/11/16 13:24:54;;;;;;;30.99;28.02;;;;;;;6.52;78.76;100114.55;465354;114;922962;-85
2022/11/16 13:26:09;;;;;;;30.94;28.15;;;;;;;6.52;78.84;100111.84;456414;116;922845;-85
2022/11/16 13:27:16;;;;;;;31.46;28.66;;;;;;;6.51;78.79;100116.42;465364;114;922879;-83
2022/11/16 13:28:26;;;;;;;31.59;28.84;;;;;;;6.50;78.87;100119.35;462518;114;922709;-86
2022/11/16 13:29:59;;;;;;;33.24;29.91;;;;;;;6.50;78.81;100120.20;455756;116;922618;-84
2022/11/16 13:31:14;;;;;;;31.76;28.72;;;;;;;6.50;78.89;100128.32;473892;112;922811;-82
2022/11/16 13:32:20;;;;;;;32.83;29.59;;;;;;;6.51;78.87;100121.00;473815;112;922921;-85
2022/11/16 13:33:48;;;;;;;31.33;28.57;;;;;;;6.49;78.78;100118.52;466585;112;922915;-85
2022/11/16 13:34:54;;;;;;;33.76;30.41;;;;;;;6.49;78.87;100121.22;465377;114;922667;-84
2022/11/16 13:35:57;;;;;;;31.65;28.66;;;;;;;6.50;78.81;100122.06;465486;114;922557;-82
2022/11/16 13:37:00;;;;;;;32.85;29.77;;;;;;;6.49;78.83;100115.80;465476;114;930464;-85
2022/11/16 13:38:10;;;;;;;33.78;30.72;;;;;;;6.49;78.84;100106.84;465471;114;922496;-85
2022/11/16 13:39:18;;;;;;;35.43;31.89;;;;;;;6.48;78.87;100106.00;465341;114;925354;-84
2022/11/16 13:40:26;;;;;;;34.07;30.56;;;;;;;6.49;78.82;100112.26;455950;116;922469;-81
2022/11/16 13:41:32;;;;;;;33.41;30.31;;;;;;;6.49;78.83;100104.97;465241;114;930429;-82
2022/11/16 13:42:42;;;;;;;33.09;29.96;;;;;;;6.49;78.81;100112.26;465326;114;922574;-85
2022/11/16 18:36:21;;;;;;;26.24;23.43;;;;;;;5.00;89.13;100021.38;503882;105;947251;-77
2022/11/16 18:37:25;;;;;;;25.31;22.89;;;;;;;4.98;88.91;100020.73;493887;107;922758;-77
2022/11/16 18:38:28;;;;;;;25.31;22.88;;;;;;;5.05;88.69;100018.09;488985;108;930214;-76
2022/11/16 18:39:31;;;;;;;25.17;22.89;;;;;;;5.11;88.48;100013.78;489045;108;922556;-77
2022/11/16 18:40:34;;;;;;;23.52;21.13;;;;;;;5.17;88.35;100011.16;488941;108;922370;-77
2022/11/16 18:41:41;;;;;;;23.58;21.24;;;;;;;5.23;88.22;100004.14;488949;108;922603;-86
2022/11/16 18:42:44;;;;;;;23.04;21.07;;;;;;;5.27;88.12;100008.95;488843;108;922572;-85
2022/11/16 18:43:58;;;;;;;24.34;21.37;;;;;;;5.32;88.03;100003.80;488989;108;922657;-82
2022/11/16 18:45:01;;;;;;;24.34;21.87;;;;;;;5.37;87.96;100006.75;488808;108;922537;-85
2022/11/16 18:46:05;;;;;;;23.50;21.06;;;;;;;5.41;87.76;100002.61;488972;108;922533;-88
2022/11/16 18:47:08;;;;;;;24.23;21.35;;;;;;;5.45;87.70;100001.21;488887;108;922625;-84
2022/11/16 18:48:11;;;;;;;22.90;20.96;;;;;;;5.50;87.63;99997.91;488905;108;930477;-84
2022/11/16 18:49:14;;;;;;;24.83;21.12;;;;;;;5.55;87.53;100002.73;489011;108;922485;-83
2022/11/16 18:50:19;;;;;;;23.40;20.91;;;;;;;5.57;87.45;99996.08;489022;108;922578;-83
2022/11/16 18:51:26;;;;;;;26.57;21.61;;;;;;;5.61;87.30;99988.42;488039;108;922570;-84
2022/11/16 18:52:29;;;;;;;22.42;20.48;;;;;;;5.64;87.13;99994.27;488839;108;922662;-84
2022/11/16 18:53:32;;;;;;;29.27;21.86;;;;;;;5.68;87.07;99992.83;489041;108;922678;-86
2022/11/16 18:54:36;;;;;;;25.62;21.51;;;;;;;5.71;86.96;99994.31;488928;108;922479;-86
2022/11/16 18:55:40;;;;;;;23.68;21.26;;;;;;;5.74;86.89;99989.34;488873;108;922547;-85
2022/11/16 18:56:43;;;;;;;22.19;19.92;;;;;;;5.77;86.83;99991.66;488962;108;922499;-86
2022/11/16 18:57:47;;;;;;;24.07;20.55;;;;;;;5.80;86.79;99987.70;488965;108;922868;-84
2022/11/16 18:58:50;;;;;;;23.75;20.82;;;;;;;5.83;86.63;99995.45;488900;108;922508;-85
2022/11/16 18:59:56;;;;;;;23.21;20.81;;;;;;;5.85;86.60;99987.95;488816;108;922532;-86
2022/11/16 19:01:02;;;;;;;24.04;20.86;;;;;;;5.88;86.37;99995.72;488942;108;922761;-83
2022/11/16 19:02:06;;;;;;;25.10;21.29;;;;;;;5.91;86.35;99992.59;488504;108;922887;-84
2022/11/16 19:03:09;;;;;;;23.36;20.92;;;;;;;5.93;86.18;99987.83;489007;108;922436;-84
2022/11/16 19:04:14;;;;;;;22.97;20.64;;;;;;;5.95;86.17;99991.19;488788;108;922791;-82
2022/11/16 19:05:17;;;;;;;23.16;20.88;;;;;;;5.97;86.09;99991.80;488390;108;922801;-87
2022/11/16 19:06:21;;;;;;;22.24;19.88;;;;;;;5.99;86.03;99987.04;484213;109;922492;-85
2022/11/16 19:07:25;;;;;;;24.36;20.48;;;;;;;6.00;85.87;99977.89;484111;109;923392;-85
2022/11/16 19:08:29;;;;;;;26.57;20.44;;;;;;;6.03;85.82;99982.89;484322;109;922583;-83
2022/11/16 19:09:32;;;;;;;22.38;20.20;;;;;;;6.05;85.74;99980.83;484197;109;922484;-83
2022/11/16 19:10:38;;;;;;;21.77;19.70;;;;;;;6.08;85.67;99985.83;484223;109;922543;-85
2022/11/16 19:11:41;;;;;;;21.92;19.67;;;;;;;6.09;85.66;99982.09;484102;109;922597;-85
2022/11/16 19:12:44;;;;;;;22.34;20.08;;;;;;;6.10;85.58;99982.93;484326;109;922463;-85
2022/11/16 19:13:54;;;;;;;23.09;20.81;;;;;;;6.12;85.45;99983.58;484297;109;923268;-86
2022/11/16 19:14:57;;;;;;;21.70;19.48;;;;;;;6.13;85.35;99980.64;484160;109;922556;-87
2022/11/16 19:16:00;;;;;;;22.32;19.86;;;;;;;6.14;85.30;99979.62;484280;109;922491;-83
2022/11/16 19:17:04;;;;;;;23.31;19.98;;;;;;;6.16;85.22;99988.38;483334;109;922508;-84
2022/11/16 19:18:07;;;;;;;23.92;20.48;;;;;;;6.17;85.21;99983.80;483135;109;922625;-86
2022/11/16 19:19:12;;;;;;;25.78;20.84;;;;;;;6.19;85.14;99979.01;475194;110;930516;-85
2022/11/16 19:20:15;;;;;;;25.08;20.11;;;;;;;6.20;85.04;99980.69;471418;112;922519;-85
2022/11/16 19:21:20;;;;;;;23.91;21.08;;;;;;;6.22;85.01;99971.34;471692;110;923084;-83
2022/11/16 19:22:23;;;;;;;25.91;20.03;;;;;;;6.23;84.92;99972.14;479901;110;930457;-85
2022/11/16 19:23:26;;;;;;;25.54;21.37;;;;;;;6.24;85.00;99966.54;480176;110;922500;-85
2022/11/16 19:24:30;;;;;;;25.74;20.17;;;;;;;6.26;84.89;99966.34;480166;110;922454;-86
2022/11/16 19:25:33;;;;;;;22.37;20.24;;;;;;;6.28;84.79;99967.80;480115;110;922525;-85
2022/11/16 19:26:36;;;;;;;23.64;19.08;;;;;;;6.29;84.72;99961.34;480085;110;922481;-87
2022/11/16 19:27:39;;;;;;;22.11;19.98;;;;;;;6.31;84.63;99963.86;480102;110;922926;-84
2022/11/16 19:28:47;;;;;;;25.44;21.14;;;;;;;6.31;84.61;99955.74;480152;110;922525;-85
2022/11/16 19:29:50;;;;;;;25.21;22.43;;;;;;;6.33;84.59;99955.55;480827;109;922474;-85
2022/11/16 19:30:53;;;;;;;27.66;21.07;;;;;;;6.33;84.41;99958.26;484250;109;922675;-85
2022/11/16 19:31:56;;;;;;;23.32;21.21;;;;;;;6.34;84.35;99962.64;484308;108;922509;-83
2022/11/16 19:33:00;;;;;;;31.04;21.32;;;;;;;6.35;84.42;99959.70;485171;108;922828;-85
2022/11/16 19:34:06;;;;;;;25.41;22.11;;;;;;;6.35;84.31;99962.41;479986;110;922881;-77
2022/11/16 19:35:10;;;;;;;24.08;20.79;;;;;;;6.36;84.33;99961.38;479903;110;923069;-77
2022/11/16 19:36:16;;;;;;;23.64;21.10;;;;;;;6.38;84.19;99961.19;479849;110;923190;-77
2022/11/16 19:37:20;;;;;;;24.87;21.66;;;;;;;6.38;84.10;99959.31;479845;110;930037;-75
2022/11/16 19:38:23;;;;;;;22.96;20.62;;;;;;;6.39;83.98;99963.70;479975;110;922882;-76
2022/11/16 19:39:26;;;;;;;24.44;21.57;;;;;;;6.40;83.95;99967.22;480021;110;922959;-76
2022/11/16 19:40:29;;;;;;;24.50;21.24;;;;;;;6.40;83.85;99968.05;480070;110;922994;-75
2022/11/16 19:41:32;;;;;;;24.83;21.90;;;;;;;6.41;83.91;99963.47;480083;110;922469;-77
2022/11/16 19:42:35;;;;;;;26.84;21.24;;;;;;;6.41;83.75;99968.89;480134;110;922799;-76
2022/11/16 19:43:39;;;;;;;22.65;20.70;;;;;;;6.41;83.80;99963.47;480017;110;922889;-76
2022/11/16 19:44:42;;;;;;;23.95;21.57;;;;;;;6.42;83.71;99962.44;479965;110;922501;-76
2022/11/16 19:45:45;;;;;;;22.64;20.52;;;;;;;6.42;83.68;99960.58;480043;110;922456;-76
2022/11/16 19:46:48;;;;;;;24.34;21.63;;;;;;;6.43;83.59;99956.00;480032;110;922765;-77
2022/11/16 19:47:52;;;;;;;22.62;20.25;;;;;;;6.43;83.64;99953.28;479971;110;922924;-76
2022/11/16 19:48:55;;;;;;;22.57;20.56;;;;;;;6.43;83.64;99950.58;479925;110;922489;-76
2022/11/16 19:49:58;;;;;;;27.02;21.86;;;;;;;6.43;83.60;99951.42;479894;110;922737;-76
2022/11/16 19:51:10;;;;;;;22.49;20.46;;;;;;;6.45;83.44;99951.22;479813;110;930329;-77
2022/11/16 19:52:13;;;;;;;23.03;20.76;;;;;;;6.45;83.48;99945.81;479765;110;922549;-76
2022/11/16 19:53:16;;;;;;;23.13;20.72;;;;;;;6.45;83.43;99951.22;479988;110;922431;-76
2022/11/16 19:54:19;;;;;;;22.85;20.57;;;;;;;6.45;83.38;99941.20;479997;110;922501;-77
2022/11/16 19:55:22;;;;;;;22.73;20.73;;;;;;;6.46;83.32;99947.45;479952;110;922875;-76
2022/11/16 19:56:25;;;;;;;22.35;19.89;;;;;;;6.45;83.26;99933.07;480001;110;922437;-76
2022/11/16 19:57:29;;;;;;;22.31;20.29;;;;;;;6.46;83.28;99936.62;479946;110;922573;-75
2022/11/16 19:58:37;;;;;;;30.56;21.04;;;;;;;6.45;83.27;99952.03;479970;110;922916;-75
2022/11/16 19:59:40;;;;;;;22.09;19.77;;;;;;;6.47;83.20;99941.00;479701;110;922585;-76
2022/11/16 20:00:43;;;;;;;21.97;19.89;;;;;;;6.47;83.16;99946.42;479930;110;922526;-76
2022/11/16 20:01:46;;;;;;;21.27;19.07;;;;;;;6.48;83.08;99939.97;479869;110;922859;-76
2022/11/16 20:02:56;;;;;;;21.94;19.83;;;;;;;6.48;83.00;99942.68;479967;110;922475;-76
2022/11/16 20:04:02;;;;;;;21.31;19.19;;;;;;;6.46;82.99;99942.88;479791;110;922956;-77
2022/11/16 20:05:06;;;;;;;21.22;19.06;;;;;;;6.47;82.92;99938.30;479742;110;922868;-78
2022/11/16 20:06:12;;;;;;;21.13;19.13;;;;;;;6.47;82.94;99932.87;483865;109;922505;-76
2022/11/16 20:07:16;;;;;;;20.48;18.56;;;;;;;6.46;82.98;99933.91;483876;109;922813;-76
2022/11/16 20:08:20;;;;;;;21.19;18.91;;;;;;;6.47;82.97;99932.87;483947;109;922460;-76
2022/11/16 20:09:23;;;;;;;20.27;18.55;;;;;;;6.47;82.82;99941.00;484003;109;930500;-76
2022/11/16 20:10:28;;;;;;;23.47;19.41;;;;;;;6.46;82.74;99940.16;484083;109;922501;-76
2022/11/16 20:11:35;;;;;;;22.89;20.40;;;;;;;6.46;82.66;99942.03;483954;109;922621;-77
2022/11/16 20:12:38;;;;;;;20.76;18.67;;;;;;;6.45;82.62;99945.81;483938;109;922985;-76
2022/11/16 20:13:41;;;;;;;20.64;18.46;;;;;;;6.45;82.53;99935.78;484159;109;922424;-77
2022/11/16 20:14:44;;;;;;;19.98;18.15;;;;;;;6.44;82.49;99936.84;485621;108;922518;-77
2022/11/16 20:15:47;;;;;;;20.41;18.44;;;;;;;6.45;82.50;99934.97;488877;108;922665;-76
2022/11/16 20:16:52;;;;;;;19.81;17.96;;;;;;;6.44;82.47;99934.14;486062;108;922976;-76
2022/11/16 20:17:55;;;;;;;21.99;19.69;;;;;;;6.45;82.54;99935.78;484636;109;922459;-76
2022/11/16 20:18:58;;;;;;;20.68;18.62;;;;;;;6.46;82.43;99933.91;484823;109;922628;-76
2022/11/16 20:20:01;;;;;;;22.39;19.96;;;;;;;6.46;82.50;99931.20;484857;109;922503;-76
2022/11/16 20:21:05;;;;;;;20.32;17.48;;;;;;;6.45;82.47;99933.07;484815;109;923864;-76
2022/11/16 20:22:08;;;;;;;19.62;17.89;;;;;;;6.47;82.37;99930.17;484754;109;923209;-76
2022/11/16 20:23:13;;;;;;;20.02;17.75;;;;;;;6.47;82.41;99924.75;484801;109;922823;-76
2022/11/16 20:24:17;;;;;;;20.57;18.69;;;;;;;6.47;82.25;99924.75;484617;109;922866;-76
2022/11/16 20:25:20;;;;;;;21.76;19.65;;;;;;;6.48;82.36;99926.42;484695;109;922443;-76
2022/11/16 20:26:24;;;;;;;23.04;20.26;;;;;;;6.47;82.19;99925.59;484650;109;930407;-76
2022/11/16 20:27:28;;;;;;;20.24;18.23;;;;;;;6.48;82.30;99921.02;484516;109;922934;-76
2022/11/16 20:28:35;;;;;;;20.82;18.68;;;;;;;6.48;82.22;99915.59;484718;109;922913;-75
2022/11/16 20:29:38;;;;;;;20.37;18.59;;;;;;;6.48;82.15;99918.30;484553;109;922698;-76
2022/11/16 20:30:47;;;;;;;20.61;18.62;;;;;;;6.48;82.04;99918.30;484752;109;922623;-76
2022/11/16 20:31:49;;;;;;;20.74;18.86;;;;;;;6.48;82.04;99921.02;484471;109;922593;-76
2022/11/16 20:32:53;;;;;;;20.54;18.63;;;;;;;6.47;81.95;99925.59;486563;108;922466;-76
2022/11/16 20:33:58;;;;;;;25.30;19.69;;;;;;;6.46;81.94;99923.08;479707;110;923024;-76
2022/11/16 20:35:01;;;;;;;20.43;18.48;;;;;;;6.45;81.92;99929.56;479505;110;922953;-76
2022/11/16 20:36:07;;;;;;;19.54;17.65;;;;;;;6.43;81.79;99920.80;479619;110;922540;-77
2022/11/16 20:37:10;;;;;;;20.74;18.10;;;;;;;6.43;81.78;99918.09;475579;110;922537;-76
2022/11/16 20:38:13;;;;;;;20.32;18.57;;;;;;;6.43;81.84;99920.80;475765;111;922832;-76
2022/11/16 20:39:19;;;;;;;22.02;19.73;;;;;;;6.43;81.91;99913.51;475784;111;922874;-76
2022/11/16 20:40:22;;;;;;;20.01;18.09;;;;;;;6.44;81.84;99917.89;475639;111;922946;-76
2022/11/16 20:41:29;;;;;;;20.76;18.67;;;;;;;6.44;81.84;99907.06;475791;111;922885;-76
2022/11/16 20:42:33;;;;;;;20.36;18.03;;;;;;;6.45;81.88;99919.53;475567;111;923400;-76